Terminal Aerodrome Forecast
Issued by NWS Tuscon, AZ

Home | Current Version | Previous Version | Text Only | Print | Product List | Glossary On
Versions: 1 2 3 4 5 6 7 8 9 10 11 12 13 14 15
000
FTUS45 KTWC 251723
TAFDUG
TAF
KDUG 251723Z 2518/2618 25018G26KT P6SM SCT120 BKN200
     FM251900 25024G34KT P6SM SCT120 BKN200
     FM260300 22016G24KT P6SM BKN200
     FM260700 19010KT P6SM BKN200
     FM261500 20016G24KT P6SM FEW200=

USA.gov is the U.S. government's official web portal to all federal, state and local government web resources and services.